createdAt,value
2019-04-11T00:00:09.049Z,57.50
2019-04-11T00:02:40.557Z,57.80
2019-04-11T00:05:10.605Z,57.90
2019-04-11T00:07:40.535Z,58.10
2019-04-11T00:10:14.406Z,58.20
2019-04-11T00:12:43.050Z,58.30
2019-04-11T00:15:20.735Z,58.50
2019-04-11T00:17:50.212Z,58.60
2019-04-11T00:20:20.591Z,58.80
2019-04-11T00:22:49.941Z,59.10
2019-04-11T00:25:20.361Z,59.20
2019-04-11T00:27:49.690Z,59.50
2019-04-11T00:30:19.838Z,59.60
2019-04-11T00:32:50.284Z,59.70
2019-04-11T00:35:19.768Z,59.90
2019-04-11T00:37:52.214Z,60.70
2019-04-11T00:40:21.611Z,60.30
2019-04-11T00:42:50.963Z,60.50
2019-04-11T00:56:36.653Z,61.60
2019-04-11T00:59:06.042Z,61.60
2019-04-11T01:01:35.686Z,61.70
2019-04-11T01:04:05.002Z,61.80
2019-04-11T01:06:34.411Z,62.10
2019-04-11T01:09:06.289Z,62.20
2019-04-11T01:11:36.397Z,62.50
2019-04-11T01:14:07.728Z,62.70
2019-04-11T01:16:45.094Z,62.90
2019-04-11T01:19:16.353Z,62.90
2019-04-11T01:21:45.686Z,63.30
2019-04-11T01:24:15.630Z,63.30
2019-04-11T01:26:45.523Z,63.40
2019-04-11T01:29:15.446Z,63.70
2019-04-11T01:31:46.362Z,63.70
2019-04-11T01:34:16.193Z,63.90
2019-04-11T01:36:45.551Z,64.00
2019-04-11T01:39:32.797Z,64.40
2019-04-11T01:42:02.768Z,64.60
2019-04-11T01:44:33.121Z,64.70
2019-04-11T01:47:03.162Z,64.90
2019-04-11T01:49:32.445Z,65.00
2019-04-11T01:52:04.747Z,66.00
2019-04-11T01:54:33.570Z,65.40
2019-04-11T01:57:03.499Z,65.40
2019-04-11T01:59:32.815Z,65.50
2019-04-11T02:02:15.682Z,65.70
2019-04-11T02:04:46.616Z,65.90
2019-04-11T02:07:15.957Z,66.10
2019-04-11T02:09:46.285Z,66.30
2019-04-11T02:12:16.284Z,66.40
2019-04-11T02:14:45.938Z,66.50
2019-04-11T02:17:15.216Z,66.40
2019-04-11T02:19:44.776Z,66.30
2019-04-11T02:22:32.730Z,66.50
2019-04-11T02:25:06.387Z,66.40
2019-04-11T02:27:37.343Z,66.70
2019-04-11T02:30:08.612Z,66.90
2019-04-11T02:32:38.030Z,67.20
2019-04-11T02:35:08.496Z,67.10
2019-04-11T02:37:38.403Z,68.00
2019-04-11T02:40:08.968Z,67.50
2019-04-11T02:42:39.214Z,67.50
2019-04-11T02:45:19.658Z,67.60
2019-04-11T02:47:41.977Z,67.90
2019-04-11T02:50:12.486Z,67.90
2019-04-11T02:52:42.215Z,67.80
2019-04-11T02:55:13.006Z,68.10
2019-04-11T02:57:43.077Z,68.10
2019-04-11T03:00:13.104Z,68.30
2019-04-11T03:02:44.375Z,68.30
2019-04-11T03:05:13.828Z,68.40
2019-04-11T03:07:43.184Z,68.40
2019-04-11T03:10:14.106Z,68.30
2019-04-11T03:12:44.301Z,68.40
2019-04-11T03:15:28.962Z,68.40
2019-04-11T03:17:47.898Z,68.60
2019-04-11T03:20:26.397Z,68.80
2019-04-11T03:22:54.105Z,68.90
2019-04-11T03:25:17.981Z,68.70
2019-04-11T03:27:47.929Z,68.90
2019-04-11T03:30:24.851Z,69.00
2019-04-11T03:33:50.338Z,69.20
2019-04-11T03:36:07.491Z,69.30
2019-04-11T03:38:12.385Z,69.30
2019-04-11T03:40:38.524Z,69.60
2019-04-11T03:43:06.263Z,69.60
2019-04-11T03:45:45.181Z,69.60
2019-04-11T03:48:10.510Z,69.70
2019-04-11T03:50:30.497Z,70.00
2019-04-11T03:52:59.460Z,70.00
2019-04-11T03:55:30.047Z,70.10
2019-04-11T03:58:01.020Z,70.10
2019-04-11T04:00:35.780Z,70.10
2019-04-11T04:03:01.651Z,71.10
2019-04-11T04:05:34.698Z,70.30
2019-04-11T04:08:04.552Z,70.20
2019-04-11T04:10:36.159Z,70.30
2019-04-11T04:13:09.917Z,70.40
2019-04-11T04:16:00.117Z,70.60
2019-04-11T04:18:19.318Z,70.60
2019-04-11T04:21:10.616Z,70.40
2019-04-11T04:23:43.232Z,70.60
2019-04-11T04:26:12.601Z,70.70
2019-04-11T04:28:42.970Z,70.60
2019-04-11T04:31:14.012Z,70.70
2019-04-11T04:33:45.325Z,71.10
2019-04-11T04:36:16.017Z,71.30
2019-04-11T04:38:46.452Z,71.10
2019-04-11T04:41:28.217Z,71.00
2019-04-11T04:43:48.110Z,70.90
2019-04-11T04:46:35.074Z,71.10
2019-04-11T04:48:51.035Z,71.00
2019-04-11T04:51:21.727Z,71.20
2019-04-11T04:53:52.100Z,71.40
2019-04-11T04:56:26.429Z,71.40
2019-04-11T04:58:54.077Z,71.40
2019-04-11T05:01:23.830Z,71.20
2019-04-11T05:03:54.061Z,71.40
2019-04-11T05:06:24.121Z,71.30
2019-04-11T05:08:53.450Z,71.40
2019-04-11T05:11:23.158Z,71.50
2019-04-11T05:13:52.609Z,71.60
2019-04-11T05:16:21.850Z,71.60
2019-04-11T05:18:51.116Z,71.60
2019-04-11T05:21:21.369Z,71.60
2019-04-11T05:23:50.608Z,71.60
2019-04-11T05:26:19.873Z,71.50
2019-04-11T05:28:49.130Z,71.30
2019-04-11T05:31:18.556Z,71.20
2019-04-11T05:33:49.718Z,71.20
2019-04-11T05:36:18.998Z,71.20
2019-04-11T05:38:48.667Z,71.30
2019-04-11T05:41:20.525Z,71.10
2019-04-11T05:43:49.366Z,71.20
2019-04-11T05:46:31.189Z,71.40
2019-04-11T05:48:51.188Z,71.20
2019-04-11T05:51:23.363Z,70.90
2019-04-11T05:53:54.521Z,70.30
2019-04-11T05:56:25.628Z,70.20
2019-04-11T05:58:57.700Z,70.60
2019-04-11T06:01:29.118Z,70.30
2019-04-11T06:04:00.500Z,70.00
2019-04-11T06:06:36.948Z,69.70
2019-04-11T06:09:10.395Z,69.40
2019-04-11T06:11:55.038Z,69.20
2019-04-11T06:14:27.987Z,69.30
2019-04-11T06:16:59.185Z,68.80
2019-04-11T06:19:48.202Z,68.60
2019-04-11T06:22:19.735Z,68.20
2019-04-11T06:25:03.552Z,67.80
2019-04-11T06:27:42.225Z,67.50
2019-04-11T06:30:28.424Z,67.40
2019-04-11T06:33:12.234Z,67.00
2019-04-11T06:35:44.100Z,66.10
2019-04-11T06:38:20.771Z,65.50
2019-04-11T06:40:52.462Z,65.10
2019-04-11T06:43:26.315Z,65.20
2019-04-11T06:46:11.606Z,65.30
2019-04-11T06:48:45.521Z,65.00
2019-04-11T06:51:16.386Z,64.30
2019-04-11T06:53:50.457Z,64.30
2019-04-11T06:56:21.389Z,63.40
2019-04-11T06:58:53.598Z,62.90
2019-04-11T07:01:28.199Z,62.60
2019-04-11T07:03:59.094Z,62.00
2019-04-11T07:06:30.016Z,61.50
2019-04-11T07:09:10.063Z,61.50
2019-04-11T07:11:52.948Z,61.30
2019-04-11T07:14:33.259Z,60.90
2019-04-11T07:17:21.087Z,60.50
2019-04-11T07:20:07.175Z,60.60
2019-04-11T07:22:53.850Z,60.00
2019-04-11T07:25:41.103Z,59.80
2019-04-11T07:28:12.034Z,59.90
2019-04-11T07:31:00.332Z,59.60
2019-04-11T07:33:31.438Z,59.20
2019-04-11T07:36:18.591Z,59.00
2019-04-11T07:39:07.653Z,58.60
2019-04-11T07:41:39.621Z,58.40
2019-04-11T07:44:17.612Z,57.50
2019-04-11T07:46:51.631Z,57.20
2019-04-11T07:49:38.934Z,57.00
2019-04-11T07:52:15.894Z,56.70
2019-04-11T07:54:45.629Z,56.00
2019-04-11T07:57:19.440Z,56.00
2019-04-11T07:59:56.244Z,55.70
2019-04-11T08:02:43.499Z,55.30
2019-04-11T08:05:30.468Z,54.80
2019-04-11T08:08:01.361Z,54.50
2019-04-11T08:10:33.026Z,54.70
2019-04-11T08:13:03.987Z,54.10
2019-04-11T08:15:51.095Z,54.20
2019-04-11T08:18:34.992Z,53.90
2019-04-11T08:21:21.994Z,54.00
2019-04-11T08:23:54.107Z,54.00
2019-04-11T08:26:42.242Z,53.80
2019-04-11T08:29:14.570Z,53.50
2019-04-11T08:32:00.574Z,52.90
2019-04-11T08:34:31.467Z,52.50
2019-04-11T08:37:19.313Z,51.90
2019-04-11T08:39:49.178Z,51.70
2019-04-11T08:42:37.347Z,51.70
2019-04-11T08:45:08.692Z,51.50
2019-04-11T08:47:46.818Z,51.30
2019-04-11T08:50:12.301Z,50.50
2019-04-11T08:52:44.346Z,50.30
2019-04-11T08:55:17.155Z,49.70
2019-04-11T08:57:47.901Z,49.30
2019-04-11T09:00:24.486Z,49.10
2019-04-11T09:02:59.529Z,49.10
2019-04-11T09:05:33.417Z,48.90
2019-04-11T09:08:23.290Z,48.30
2019-04-11T09:11:12.774Z,48.00
2019-04-11T09:13:49.800Z,47.40
2019-04-11T09:16:35.522Z,47.20
2019-04-11T09:19:06.433Z,47.20
2019-04-11T09:21:53.458Z,47.10
2019-04-11T09:24:24.365Z,46.50
2019-04-11T09:26:56.186Z,46.00
2019-04-11T09:29:28.419Z,46.30
2019-04-11T09:32:00.127Z,45.80
2019-04-11T09:34:31.081Z,45.60
2019-04-11T09:37:03.064Z,45.00
2019-04-11T09:39:37.257Z,45.20
2019-04-11T09:42:19.801Z,44.40
2019-04-11T09:44:49.522Z,44.40
2019-04-11T09:47:36.244Z,44.90
2019-04-11T09:50:18.205Z,44.70
2019-04-11T09:52:49.589Z,45.20
2019-04-11T09:55:29.567Z,44.00
2019-04-11T09:58:01.199Z,43.30
2019-04-11T10:00:36.690Z,43.10
2019-04-11T10:03:08.734Z,43.20
2019-04-11T10:05:42.665Z,43.30
2019-04-11T10:08:24.673Z,43.20
2019-04-11T10:11:08.008Z,42.90
2019-04-11T10:13:51.289Z,43.60
2019-04-11T10:16:22.188Z,42.80
2019-04-11T10:18:53.634Z,40.90
2019-04-11T10:21:25.859Z,41.20
2019-04-11T10:23:57.002Z,42.10
2019-04-11T10:26:27.920Z,42.70
2019-04-11T10:29:00.164Z,42.70
2019-04-11T10:31:31.133Z,42.30
2019-04-11T10:34:11.313Z,42.10
2019-04-11T10:36:43.324Z,42.30
2019-04-11T10:39:22.893Z,41.70
2019-04-11T10:41:57.868Z,42.50
2019-04-11T10:44:29.816Z,42.70
2019-04-11T10:47:01.986Z,42.20
2019-04-11T10:49:33.013Z,42.20
2019-04-11T10:52:15.805Z,42.30
2019-04-11T10:54:47.424Z,42.40
2019-04-11T10:57:36.211Z,41.60
2019-04-11T11:00:15.638Z,41.80
2019-04-11T11:02:58.334Z,41.40
2019-04-11T11:05:30.435Z,40.40
2019-04-11T11:08:01.406Z,41.00
2019-04-11T11:10:33.252Z,39.80
2019-04-11T11:13:16.202Z,40.70
2019-04-11T11:15:47.558Z,41.10
2019-04-11T11:18:54.002Z,41.20
2019-04-11T11:21:05.704Z,40.20
2019-04-11T11:23:54.629Z,39.70
2019-04-11T11:26:24.806Z,39.90
2019-04-11T11:29:07.104Z,39.00
2019-04-11T11:31:36.187Z,37.70
2019-04-11T11:34:09.156Z,39.70
2019-04-11T11:36:43.744Z,40.10
2019-04-11T11:39:33.352Z,40.60
2019-04-11T11:42:20.385Z,40.30
2019-04-11T11:45:07.521Z,40.90
2019-04-11T11:47:55.282Z,40.70
2019-04-11T11:50:31.849Z,40.20
2019-04-11T11:53:18.473Z,39.30
2019-04-11T11:55:49.568Z,39.60
2019-04-11T11:58:37.531Z,40.00
2019-04-11T12:01:09.373Z,39.50
2019-04-11T12:03:46.742Z,39.10
2019-04-11T12:06:22.314Z,39.40
2019-04-11T12:08:56.072Z,39.80
2019-04-11T12:11:26.340Z,39.00
2019-04-11T12:14:13.751Z,38.30
2019-04-11T12:17:01.197Z,38.40
2019-04-11T12:19:29.017Z,38.20
2019-04-11T12:22:00.244Z,38.30
2019-04-11T12:24:34.430Z,38.70
2019-04-11T12:27:11.583Z,38.20
2019-04-11T12:30:01.405Z,37.50
2019-04-11T12:32:39.006Z,38.00
2019-04-11T12:35:24.282Z,37.90
2019-04-11T12:37:57.919Z,37.70
2019-04-11T12:40:46.809Z,37.50
2019-04-11T12:43:17.164Z,37.50
2019-04-11T12:45:50.794Z,37.60
2019-04-11T12:48:21.865Z,37.80
2019-04-11T12:50:55.706Z,38.00
2019-04-11T12:53:24.988Z,38.20
2019-04-11T12:55:55.900Z,37.80
2019-04-11T12:58:35.394Z,37.30
2019-04-11T13:01:22.607Z,37.20
2019-04-11T13:04:11.418Z,37.00
2019-04-11T13:06:42.316Z,37.40
2019-04-11T13:09:19.295Z,37.30
2019-04-11T13:11:59.208Z,37.50
2019-04-11T13:14:30.125Z,37.00
2019-04-11T13:17:10.011Z,36.80
2019-04-11T13:19:46.835Z,36.10
2019-04-11T13:22:17.802Z,37.10
2019-04-11T13:24:51.460Z,37.10
2019-04-11T13:27:22.382Z,36.60
2019-04-11T13:30:05.371Z,36.00
2019-04-11T13:32:45.423Z,36.50
2019-04-11T13:35:25.269Z,36.20
2019-04-11T13:38:12.415Z,36.60
2019-04-11T13:40:46.253Z,35.60
2019-04-11T13:43:20.140Z,33.40
2019-04-11T13:46:05.302Z,31.50
2019-04-11T13:48:48.208Z,29.80
2019-04-11T13:51:31.004Z,29.80
2019-04-11T13:54:16.751Z,29.10
2019-04-11T13:57:05.710Z,29.10
2019-04-11T13:59:36.617Z,28.90
2019-04-11T14:02:07.611Z,28.90
2019-04-11T14:04:41.528Z,28.90
2019-04-11T14:07:11.871Z,28.20
2019-04-11T14:09:42.690Z,27.90
2019-04-11T14:12:12.135Z,27.90
2019-04-11T14:14:41.966Z,28.10
2019-04-11T14:17:12.865Z,27.70
2019-04-11T14:19:43.757Z,27.10
2019-04-11T14:22:14.678Z,26.50
2019-04-11T14:24:51.519Z,26.70
2019-04-11T14:27:25.358Z,27.10
2019-04-11T14:30:07.970Z,27.40
2019-04-11T14:32:44.811Z,27.10
2019-04-11T14:35:32.087Z,27.20
2019-04-11T14:38:02.996Z,27.10
2019-04-11T14:40:36.632Z,26.70
2019-04-11T14:43:16.878Z,26.30
2019-04-11T14:45:53.773Z,25.90
2019-04-11T14:48:40.060Z,25.40
2019-04-11T14:51:15.982Z,25.60
2019-04-11T14:53:46.309Z,25.40
2019-04-11T14:56:16.950Z,25.30
2019-04-11T14:59:03.978Z,25.10
2019-04-11T15:01:33.302Z,25.10
2019-04-11T15:04:19.309Z,24.90
2019-04-11T15:06:56.026Z,24.70
2019-04-11T15:09:46.461Z,24.70
2019-04-11T15:12:18.673Z,24.10
2019-04-11T15:15:11.339Z,24.10
2019-04-11T15:17:41.990Z,23.70
2019-04-11T15:20:27.894Z,23.90
2019-04-11T15:23:06.683Z,23.90
2019-04-11T15:25:46.253Z,24.30
2019-04-11T15:28:20.545Z,24.60
2019-04-11T15:30:53.975Z,24.50
2019-04-11T15:33:40.955Z,24.60
2019-04-11T15:36:11.886Z,24.10
2019-04-11T15:38:49.050Z,23.90
2019-04-11T15:41:18.293Z,24.10
2019-04-11T15:43:58.111Z,24.50
2019-04-11T15:46:29.015Z,24.40
2019-04-11T15:49:21.250Z,25.80
2019-04-11T15:51:50.630Z,28.10
2019-04-11T15:54:37.843Z,30.20
2019-04-11T15:57:12.282Z,32.00
2019-04-11T15:59:43.825Z,33.40
2019-04-11T16:02:30.135Z,33.90
2019-04-11T16:05:02.098Z,34.10
2019-04-11T16:07:47.031Z,34.50
2019-04-11T16:10:16.765Z,34.50
2019-04-11T16:12:48.651Z,34.60
2019-04-11T16:15:23.292Z,34.90
2019-04-11T16:18:10.620Z,35.20
2019-04-11T16:20:39.991Z,35.20
2019-04-11T16:23:10.879Z,35.30
2019-04-11T16:25:40.394Z,35.70
2019-04-11T16:28:21.030Z,35.90
2019-04-11T16:30:57.994Z,36.50
2019-04-11T16:33:31.842Z,36.10
2019-04-11T16:36:20.242Z,36.20
2019-04-11T16:39:08.714Z,36.00
2019-04-11T16:41:48.847Z,36.00
2019-04-11T16:44:34.666Z,36.20
2019-04-11T16:47:08.185Z,36.60
2019-04-11T16:49:36.478Z,36.90
2019-04-11T16:52:08.311Z,37.30
2019-04-11T16:54:40.011Z,37.20
2019-04-11T16:57:13.559Z,37.80
2019-04-11T16:59:41.286Z,38.30
2019-04-11T17:02:10.619Z,38.60
2019-04-11T17:04:47.230Z,38.70
2019-04-11T17:07:26.157Z,39.20
2019-04-11T17:09:56.837Z,39.60
2019-04-11T17:12:27.220Z,39.90
2019-04-11T17:14:58.283Z,40.50
2019-04-11T17:17:30.616Z,40.70
2019-04-11T17:20:05.904Z,41.40
2019-04-11T17:22:34.184Z,41.90
2019-04-11T17:25:04.179Z,41.90
2019-04-11T17:27:33.538Z,42.10
2019-04-11T17:30:02.857Z,42.30
2019-04-11T17:32:32.179Z,42.30
2019-04-11T17:35:01.961Z,42.50
2019-04-11T17:37:33.232Z,42.90
2019-04-11T17:40:06.605Z,43.30
2019-04-11T17:42:36.823Z,43.70
2019-04-11T17:45:06.273Z,43.90
2019-04-11T17:47:35.612Z,44.30
2019-04-11T17:50:06.070Z,44.60
2019-04-11T17:52:37.349Z,44.90
2019-04-11T17:55:06.707Z,45.00
2019-04-11T17:57:35.939Z,45.30
2019-04-11T18:00:08.524Z,45.40
2019-04-11T18:02:39.053Z,45.70
2019-04-11T18:05:08.871Z,46.20
2019-04-11T18:07:38.142Z,46.40
2019-04-11T18:10:07.575Z,46.70
2019-04-11T18:12:37.819Z,47.10
2019-04-11T18:15:07.570Z,47.20
2019-04-11T18:17:36.941Z,47.50
2019-04-11T18:20:08.458Z,47.60
2019-04-11T18:22:39.669Z,48.00
2019-04-11T18:25:10.934Z,48.20
2019-04-11T18:27:51.584Z,48.30
2019-04-11T18:30:14.558Z,48.50
2019-04-11T18:32:43.828Z,48.80
2019-04-11T18:35:13.251Z,48.90
2019-04-11T18:37:42.573Z,49.20
2019-04-11T18:40:13.466Z,49.40
2019-04-11T18:42:42.839Z,49.40
2019-04-11T18:45:14.982Z,49.70
2019-04-11T18:47:44.330Z,49.90
2019-04-11T18:50:13.795Z,50.00
2019-04-11T18:52:43.559Z,50.10
2019-04-11T18:55:12.817Z,50.20
2019-04-11T18:57:42.046Z,50.40
2019-04-11T19:00:13.839Z,50.60
2019-04-11T19:02:43.166Z,50.60
2019-04-11T19:05:13.365Z,50.80
2019-04-11T19:07:43.610Z,50.90
2019-04-11T19:10:15.000Z,51.10
2019-04-11T19:12:46.208Z,51.20
2019-04-11T19:15:16.712Z,51.20
2019-04-11T19:17:47.068Z,51.20
2019-04-11T19:20:18.881Z,51.40
2019-04-11T19:22:48.523Z,51.50
2019-04-11T19:25:17.763Z,51.60
2019-04-11T19:27:50.427Z,51.50
2019-04-11T19:30:17.857Z,51.50
2019-04-11T19:32:48.378Z,51.80
2019-04-11T19:35:17.706Z,51.70
2019-04-11T19:37:47.040Z,51.70
2019-04-11T19:40:17.037Z,51.90
2019-04-11T19:42:48.776Z,51.80
2019-04-11T19:45:19.538Z,52.00
2019-04-11T19:47:51.691Z,52.00
2019-04-11T19:50:19.070Z,52.20
2019-04-11T19:52:48.334Z,52.40
2019-04-11T19:55:21.945Z,52.30
2019-04-11T19:57:51.286Z,52.20
2019-04-11T20:00:21.602Z,52.40
2019-04-11T20:02:51.854Z,52.40
2019-04-11T20:05:22.222Z,52.60
2019-04-11T20:07:51.509Z,52.80
2019-04-11T20:10:20.741Z,52.80
2019-04-11T20:12:50.010Z,52.90
2019-04-11T20:15:19.262Z,52.80
2019-04-11T20:17:52.034Z,53.00
2019-04-11T20:20:19.463Z,52.80
2019-04-11T20:22:58.453Z,53.00
2019-04-11T20:25:19.603Z,53.10
2019-04-11T20:27:50.691Z,53.00
2019-04-11T20:30:19.730Z,53.10
2019-04-11T20:32:48.982Z,53.90
2019-04-11T20:35:28.455Z,53.30
2019-04-11T20:37:50.405Z,53.60
2019-04-11T20:40:22.364Z,53.80
2019-04-11T20:42:54.046Z,53.70
2019-04-11T20:45:21.883Z,54.00
2019-04-11T20:47:51.133Z,54.20
2019-04-11T20:50:20.322Z,54.40
2019-04-11T20:52:49.580Z,54.40
2019-04-11T20:55:20.471Z,54.40
2019-04-11T20:57:49.810Z,54.60
2019-04-11T21:00:19.092Z,54.70
2019-04-11T21:02:48.358Z,54.80
2019-04-11T21:05:17.604Z,55.00
2019-04-11T21:07:46.765Z,55.20
2019-04-11T21:10:15.981Z,55.30
2019-04-11T21:12:45.152Z,55.30
2019-04-11T21:15:15.974Z,55.40
2019-04-11T21:17:45.216Z,55.60
2019-04-11T21:20:14.518Z,55.70
2019-04-11T21:22:43.763Z,55.90
2019-04-11T21:25:12.935Z,56.10
2019-04-11T21:27:42.195Z,56.20
2019-04-11T21:30:11.489Z,56.40
2019-04-11T21:32:40.730Z,56.50
2019-04-11T21:35:09.985Z,56.50
2019-04-11T21:37:39.266Z,56.70
2019-04-11T21:40:09.460Z,56.60
2019-04-11T21:42:38.650Z,56.50
2019-04-11T21:45:07.930Z,56.60
2019-04-11T21:47:38.015Z,56.40
2019-04-11T21:50:09.540Z,56.30
2019-04-11T21:52:38.464Z,56.30
2019-04-11T21:55:07.706Z,56.20
2019-04-11T21:57:37.031Z,56.20
2019-04-11T22:00:09.557Z,56.10
2019-04-11T22:02:40.413Z,56.10
2019-04-11T22:05:09.962Z,56.10
2019-04-11T22:07:39.270Z,56.10
2019-04-11T22:10:08.600Z,56.20
2019-04-11T22:12:40.075Z,56.20
2019-04-11T22:15:11.696Z,56.20
2019-04-11T22:17:39.800Z,56.10
2019-04-11T22:20:09.111Z,55.90
2019-04-11T22:22:38.302Z,55.80
2019-04-11T22:25:07.498Z,55.70
2019-04-11T22:27:36.743Z,55.70
2019-04-11T22:30:07.419Z,55.70
2019-04-11T22:32:37.479Z,55.60
2019-04-11T22:35:06.739Z,55.70
2019-04-11T22:37:36.070Z,55.80
2019-04-11T22:40:09.939Z,55.70
2019-04-11T22:42:39.247Z,55.50
2019-04-11T22:45:09.148Z,55.50
2019-04-11T22:47:38.987Z,55.60
2019-04-11T22:50:10.070Z,55.60
2019-04-11T22:52:39.873Z,55.80
2019-04-11T22:55:11.325Z,55.70
2019-04-11T22:57:43.618Z,55.70
2019-04-11T23:01:06.216Z,55.70
2019-04-11T23:03:55.002Z,55.70
2019-04-11T23:06:24.275Z,55.80
2019-04-11T23:08:53.548Z,55.80
2019-04-11T23:11:22.827Z,55.90
2019-04-11T23:13:52.066Z,56.00
2019-04-11T23:16:21.328Z,56.20
2019-04-11T23:18:50.589Z,56.70
2019-04-11T23:21:19.845Z,56.80
2019-04-11T23:23:49.052Z,57.00
2019-04-11T23:26:18.357Z,57.20
2019-04-11T23:28:47.573Z,57.30
2019-04-11T23:31:19.768Z,57.10
2019-04-11T23:33:51.442Z,57.20
2019-04-11T23:36:21.168Z,57.30
2019-04-11T23:38:52.761Z,57.40
2019-04-11T23:41:21.038Z,57.50
2019-04-11T23:43:50.508Z,57.60
2019-04-11T23:46:21.435Z,58.00
2019-04-11T23:48:54.591Z,58.00
2019-04-11T23:51:25.445Z,58.30
2019-04-11T23:53:52.481Z,58.40
2019-04-11T23:56:21.750Z,58.50
2019-04-11T23:58:50.993Z,58.70
